createdAt,value
2018-06-04T02:00:21.035Z,16.78
2018-06-04T02:00:25.254Z,16.8
2018-06-04T02:00:29.464Z,16.82
2018-06-04T02:00:33.674Z,16.85
2018-06-04T02:00:37.991Z,16.82
2018-06-04T02:00:42.321Z,16.81
2018-06-04T02:00:46.649Z,16.85
2018-06-04T02:00:50.969Z,16.82
2018-06-04T02:00:55.185Z,16.87
2018-06-04T02:00:59.501Z,16.9
2018-06-04T02:01:03.601Z,16.84
2018-06-04T02:01:07.832Z,16.88
2018-06-04T02:01:12.153Z,16.78
2018-06-04T02:01:31.189Z,16.81
2018-06-04T02:01:35.402Z,16.84
2018-06-04T02:01:39.716Z,16.85
2018-06-04T02:01:44.034Z,16.82
2018-06-04T02:01:48.137Z,16.81
2018-06-04T02:01:52.258Z,16.78
2018-06-04T02:01:56.467Z,16.84
2018-06-04T02:02:00.676Z,16.84
2018-06-04T02:02:04.889Z,16.85
2018-06-04T02:02:09.105Z,16.78
2018-06-04T02:02:13.323Z,16.75
2018-06-04T02:02:17.537Z,16.75
2018-06-04T02:02:21.755Z,16.84
2018-06-04T02:02:25.968Z,16.84
2018-06-04T02:02:30.175Z,16.81
2018-06-04T02:02:34.180Z,16.78
2018-06-04T02:02:38.297Z,16.84
2018-06-04T02:02:42.507Z,16.82
2018-06-04T02:02:46.883Z,16.78
2018-06-04T02:02:50.980Z,16.75
2018-06-04T02:02:55.082Z,16.78
2018-06-04T02:02:59.401Z,16.82
2018-06-04T02:03:03.499Z,16.85
2018-06-04T02:03:07.705Z,16.8
2018-06-04T02:03:11.914Z,16.8
2018-06-04T02:03:16.229Z,16.78
2018-06-04T02:03:20.434Z,16.8
2018-06-04T02:03:24.542Z,16.88
2018-06-04T02:03:28.866Z,16.8
2018-06-04T02:03:32.973Z,16.77
2018-06-04T02:03:37.294Z,16.84
2018-06-04T02:03:41.394Z,16.84
2018-06-04T02:03:45.712Z,16.82
2018-06-04T02:03:49.816Z,16.77
2018-06-04T02:03:54.031Z,16.72
2018-06-04T02:03:58.242Z,16.77
2018-06-04T02:04:02.563Z,16.78
2018-06-04T02:04:06.783Z,16.75
2018-06-04T02:04:10.996Z,16.7
2018-06-04T02:04:15.209Z,16.84
2018-06-04T02:04:19.531Z,16.8
2018-06-04T02:04:23.739Z,16.8
2018-06-04T02:04:27.855Z,16.8
2018-06-04T02:04:32.177Z,16.78
2018-06-04T02:04:36.287Z,16.73
2018-06-04T02:04:40.601Z,16.75
2018-06-04T02:04:44.923Z,16.82
2018-06-04T02:04:49.242Z,16.8
2018-06-04T02:04:53.127Z,16.69
2018-06-04T02:04:57.233Z,16.75
2018-06-04T02:05:01.453Z,16.8
2018-06-04T02:05:05.561Z,16.8
2018-06-04T02:05:09.667Z,16.82
2018-06-04T02:05:13.883Z,16.77
2018-06-04T02:05:18.095Z,16.81
2018-06-04T02:05:22.405Z,16.87
2018-06-04T02:05:26.718Z,16.85
2018-06-04T02:05:30.927Z,16.7
2018-06-04T02:05:35.244Z,16.78
2018-06-04T02:05:39.460Z,16.7
2018-06-04T02:05:43.668Z,16.73
2018-06-04T02:05:47.876Z,16.72
2018-06-04T02:05:52.087Z,16.73
2018-06-04T02:05:56.413Z,16.69
2018-06-04T02:06:00.518Z,16.75
2018-06-04T02:06:04.623Z,16.73
2018-06-04T02:06:08.622Z,16.77
2018-06-04T02:06:12.724Z,16.75
2018-06-04T02:06:16.931Z,16.72
2018-06-04T02:06:21.244Z,16.67
2018-06-04T02:06:25.459Z,16.7
2018-06-04T02:06:29.672Z,16.77
2018-06-04T02:06:33.992Z,16.75
2018-06-04T02:06:38.203Z,16.73
2018-06-04T02:06:42.525Z,16.69
2018-06-04T02:06:46.837Z,16.77
2018-06-04T02:06:51.153Z,16.7
2018-06-04T02:06:55.469Z,16.73
2018-06-04T02:06:59.679Z,16.8
2018-06-04T02:07:03.675Z,16.78
2018-06-04T02:07:07.882Z,16.8
2018-06-04T02:07:12.093Z,16.77
2018-06-04T02:07:16.407Z,16.7
2018-06-04T02:07:20.622Z,16.67
2018-06-04T02:07:24.944Z,16.67
2018-06-04T02:07:29.166Z,16.72
2018-06-04T02:07:33.491Z,16.67
2018-06-04T02:07:37.600Z,16.7
2018-06-04T02:07:41.700Z,16.73
2018-06-04T02:07:46.012Z,16.77
2018-06-04T02:07:50.217Z,16.72
2018-06-04T02:07:54.422Z,16.77
2018-06-04T02:07:58.523Z,16.73
2018-06-04T02:08:02.780Z,16.66
2018-06-04T02:08:06.887Z,16.78
2018-06-04T02:08:10.987Z,16.67
2018-06-04T02:08:15.197Z,16.67
2018-06-04T02:08:19.515Z,16.73
2018-06-04T02:08:23.613Z,16.72
2018-06-04T02:08:27.830Z,16.77
2018-06-04T02:08:31.938Z,16.72
2018-06-04T02:08:36.156Z,16.67
2018-06-04T02:08:40.384Z,16.67
2018-06-04T02:08:44.698Z,16.66
2018-06-04T02:08:48.957Z,16.65
2018-06-04T02:08:53.183Z,16.75
2018-06-04T02:08:57.277Z,16.77
2018-06-04T02:09:01.482Z,16.77
2018-06-04T02:09:05.475Z,16.67
2018-06-04T02:09:09.580Z,16.77
2018-06-04T02:09:13.900Z,16.69
2018-06-04T02:09:18.245Z,16.73
2018-06-04T02:09:22.458Z,16.7
2018-06-04T02:09:26.562Z,16.78
2018-06-04T02:09:30.766Z,16.67
2018-06-04T02:09:34.968Z,16.7
2018-06-04T02:09:39.078Z,16.78
2018-06-04T02:09:43.184Z,16.73
2018-06-04T02:09:47.396Z,16.77
2018-06-04T02:09:51.400Z,16.69
2018-06-04T02:09:55.742Z,16.77
2018-06-04T02:09:59.735Z,16.69
2018-06-04T02:10:03.848Z,16.7
2018-06-04T02:10:08.059Z,16.67
2018-06-04T02:10:12.274Z,16.67
2018-06-04T02:10:16.490Z,16.73
2018-06-04T02:10:20.798Z,16.7
2018-06-04T02:10:25.009Z,16.72
2018-06-04T02:10:29.220Z,16.69
2018-06-04T02:10:33.543Z,16.77
2018-06-04T02:10:37.641Z,16.8
2018-06-04T02:10:41.959Z,16.7
2018-06-04T02:10:46.163Z,16.75
2018-06-04T02:10:50.277Z,16.69
2018-06-04T02:10:54.498Z,16.75
2018-06-04T02:10:58.712Z,16.7
2018-06-04T02:11:02.825Z,16.73
2018-06-04T02:11:06.938Z,16.73
2018-06-04T02:11:11.142Z,16.66
2018-06-04T02:11:15.352Z,16.65
2018-06-04T02:11:19.461Z,16.87
2018-06-04T02:11:23.681Z,16.72
2018-06-04T02:11:27.885Z,16.73
2018-06-04T02:11:32.204Z,16.69
2018-06-04T02:11:36.412Z,16.66
2018-06-04T02:11:40.621Z,16.75
2018-06-04T02:11:44.830Z,16.69
2018-06-04T02:11:49.143Z,16.72
2018-06-04T02:11:53.349Z,16.72
2018-06-04T02:11:57.452Z,16.69
2018-06-04T02:12:01.563Z,16.66
2018-06-04T02:12:05.724Z,16.73
2018-06-04T02:12:09.951Z,16.66
2018-06-04T02:12:14.074Z,16.63
2018-06-04T02:12:18.323Z,16.75
2018-06-04T02:12:22.545Z,16.63
2018-06-04T02:12:26.753Z,16.66
2018-06-04T02:12:30.995Z,16.66
2018-06-04T02:12:35.318Z,16.75
2018-06-04T02:12:39.419Z,16.77
2018-06-04T02:12:43.746Z,16.73
2018-06-04T02:12:47.963Z,16.7
2018-06-04T02:12:52.075Z,16.75
2018-06-04T02:12:56.399Z,16.66
2018-06-04T02:13:00.506Z,16.65
2018-06-04T02:13:04.699Z,16.73
2018-06-04T02:13:08.907Z,16.75
2018-06-04T02:13:13.018Z,16.75
2018-06-04T02:13:17.126Z,16.7
2018-06-04T02:13:21.451Z,16.73
2018-06-04T02:13:25.768Z,16.65
2018-06-04T02:13:30.138Z,16.72
2018-06-04T02:13:34.353Z,16.72
2018-06-04T02:13:38.463Z,16.72
2018-06-04T02:13:42.676Z,16.67
2018-06-04T02:13:46.992Z,16.69
2018-06-04T02:13:51.200Z,16.73
2018-06-04T02:13:55.520Z,16.69
2018-06-04T02:13:59.835Z,16.67
2018-06-04T02:14:04.138Z,16.7
2018-06-04T02:14:08.246Z,16.66
2018-06-04T02:14:12.365Z,16.72
2018-06-04T02:14:16.684Z,16.73
2018-06-04T02:14:20.789Z,16.78
2018-06-04T02:14:24.891Z,16.66
2018-06-04T02:14:28.899Z,16.63
2018-06-04T02:14:33.227Z,16.77
2018-06-04T02:14:37.435Z,16.72
2018-06-04T02:14:41.547Z,16.75
2018-06-04T02:14:45.757Z,16.66
2018-06-04T02:14:49.965Z,16.73
2018-06-04T02:14:54.294Z,16.72
2018-06-04T02:14:58.399Z,16.77
2018-06-04T02:15:02.558Z,16.75
2018-06-04T02:15:06.549Z,16.67
2018-06-04T02:15:10.869Z,16.75
2018-06-04T02:15:15.080Z,16.66
2018-06-04T02:15:19.185Z,16.67
2018-06-04T02:15:23.395Z,16.69
2018-06-04T02:15:27.497Z,16.72
2018-06-04T02:15:31.825Z,16.72
2018-06-04T02:15:36.034Z,16.66
2018-06-04T02:15:40.140Z,16.72
2018-06-04T02:15:44.025Z,16.72
2018-06-04T02:15:48.233Z,16.66
2018-06-04T02:15:52.451Z,16.75
2018-06-04T02:15:56.771Z,16.7
2018-06-04T02:16:00.889Z,16.66
2018-06-04T02:16:04.880Z,16.67
2018-06-04T02:16:08.983Z,16.72
2018-06-04T02:16:13.191Z,16.73
2018-06-04T02:16:17.092Z,16.73
2018-06-04T02:16:21.197Z,16.72
2018-06-04T02:16:25.402Z,16.69
2018-06-04T02:16:29.716Z,16.66
2018-06-04T02:16:34.030Z,16.7
2018-06-04T02:16:38.133Z,16.72
2018-06-04T02:16:42.342Z,16.66
2018-06-04T02:16:46.442Z,16.69
2018-06-04T02:16:50.549Z,16.69
2018-06-04T02:16:54.648Z,16.66
2018-06-04T02:16:58.864Z,16.67
2018-06-04T02:17:02.974Z,16.7
2018-06-04T02:17:07.180Z,16.72
2018-06-04T02:17:11.399Z,16.66
2018-06-04T02:17:15.612Z,16.65
2018-06-04T02:17:19.826Z,16.72
2018-06-04T02:17:24.155Z,16.72
2018-06-04T02:17:28.514Z,16.65
2018-06-04T02:17:32.727Z,16.65
2018-06-04T02:17:37.042Z,16.75
2018-06-04T02:17:41.247Z,16.7
2018-06-04T02:17:45.461Z,16.72
2018-06-04T02:17:49.775Z,16.72
2018-06-04T02:17:53.986Z,16.67
2018-06-04T02:17:58.195Z,16.65
2018-06-04T02:18:02.519Z,16.66
2018-06-04T02:18:06.727Z,16.7
2018-06-04T02:18:11.091Z,16.72
2018-06-04T02:18:15.306Z,16.72
2018-06-04T02:18:19.635Z,16.72
2018-06-04T02:18:23.742Z,16.67
2018-06-04T02:18:27.953Z,16.75
2018-06-04T02:18:32.267Z,16.75
2018-06-04T02:18:36.387Z,16.7
2018-06-04T02:18:40.618Z,16.72
2018-06-04T02:18:44.943Z,16.75
2018-06-04T02:18:49.267Z,16.72
2018-06-04T02:18:53.486Z,16.69
2018-06-04T02:18:57.703Z,16.69
2018-06-04T02:19:01.917Z,16.69
2018-06-04T02:19:05.957Z,16.69
2018-06-04T02:19:10.166Z,16.66
2018-06-04T02:19:14.381Z,16.72
2018-06-04T02:19:18.697Z,16.75
2018-06-04T02:19:23.010Z,16.72
2018-06-04T02:19:27.237Z,16.66
2018-06-04T02:19:31.344Z,16.72
2018-06-04T02:19:35.676Z,16.72
2018-06-04T02:19:39.887Z,16.65
2018-06-04T02:19:43.876Z,16.72
2018-06-04T02:19:47.980Z,16.72
2018-06-04T02:19:52.089Z,16.69
2018-06-04T02:19:56.297Z,16.67
2018-06-04T02:20:00.295Z,16.66
2018-06-04T02:20:04.290Z,16.69
2018-06-04T02:20:08.515Z,16.7
2018-06-04T02:20:12.722Z,16.81
2018-06-04T02:20:16.820Z,16.63
2018-06-04T02:20:21.132Z,16.75
2018-06-04T02:20:25.231Z,16.75
2018-06-04T02:20:29.545Z,16.69
2018-06-04T02:20:33.762Z,16.66
2018-06-04T02:20:37.965Z,16.73
2018-06-04T02:20:41.958Z,16.66
2018-06-04T02:20:46.000Z,16.66
2018-06-04T02:20:50.209Z,16.66
2018-06-04T02:20:54.308Z,16.65
2018-06-04T02:20:58.518Z,16.69
2018-06-04T02:21:02.721Z,16.67
2018-06-04T02:21:06.934Z,16.65
2018-06-04T02:21:11.250Z,16.66
2018-06-04T02:21:15.571Z,16.73
2018-06-04T02:21:19.908Z,16.66
2018-06-04T02:21:24.122Z,16.67
2018-06-04T02:21:28.330Z,16.69
2018-06-04T02:21:32.645Z,16.67
2018-06-04T02:21:36.755Z,16.69
2018-06-04T02:21:40.969Z,16.66
2018-06-04T02:21:45.070Z,16.67
2018-06-04T02:21:49.168Z,16.66
2018-06-04T02:21:53.372Z,16.75
2018-06-04T02:21:57.691Z,16.6
2018-06-04T02:22:02.005Z,16.66
2018-06-04T02:22:06.012Z,16.75
2018-06-04T02:22:10.122Z,16.7
2018-06-04T02:22:14.329Z,16.72
2018-06-04T02:22:18.645Z,16.72
2018-06-04T02:22:22.859Z,16.72
2018-06-04T02:22:27.073Z,16.66
2018-06-04T02:22:31.400Z,16.69
2018-06-04T02:22:35.505Z,16.69
2018-06-04T02:22:39.818Z,16.72
2018-06-04T02:22:44.037Z,16.77
2018-06-04T02:22:48.027Z,16.69
2018-06-04T02:22:51.920Z,16.72
2018-06-04T02:22:56.135Z,16.72
2018-06-04T02:23:00.132Z,16.69
2018-06-04T02:23:04.342Z,16.73
2018-06-04T02:23:08.449Z,16.69
2018-06-04T02:23:12.551Z,16.72
2018-06-04T02:23:16.871Z,16.7
2018-06-04T02:23:21.199Z,16.72
2018-06-04T02:23:25.412Z,16.72
2018-06-04T02:23:29.619Z,16.73
2018-06-04T02:23:33.826Z,16.69
2018-06-04T02:23:38.076Z,16.72
2018-06-04T02:23:42.172Z,16.7
2018-06-04T02:23:46.062Z,16.69
2018-06-04T02:23:50.431Z,16.73
2018-06-04T02:23:54.747Z,16.73
2018-06-04T02:23:58.966Z,16.72
2018-06-04T02:24:02.863Z,16.69
2018-06-04T02:24:07.183Z,16.75
2018-06-04T02:24:11.176Z,16.73
2018-06-04T02:24:15.502Z,16.66
2018-06-04T02:24:19.830Z,16.66
2018-06-04T02:24:23.939Z,16.69
2018-06-04T02:24:28.039Z,16.69
2018-06-04T02:24:32.363Z,16.66
2018-06-04T02:24:36.569Z,16.72
2018-06-04T02:24:40.676Z,16.72
2018-06-04T02:24:44.674Z,16.67
2018-06-04T02:24:48.988Z,16.66
2018-06-04T02:24:53.204Z,16.75
2018-06-04T02:24:57.199Z,16.75
2018-06-04T02:25:01.414Z,16.66
2018-06-04T02:25:05.413Z,16.7
2018-06-04T02:25:09.628Z,16.72
2018-06-04T02:25:13.732Z,16.67
2018-06-04T02:25:17.628Z,16.66
2018-06-04T02:25:21.733Z,16.66
2018-06-04T02:25:25.952Z,16.63
2018-06-04T02:25:30.157Z,16.66
2018-06-04T02:25:34.483Z,16.66
2018-06-04T02:25:38.691Z,16.7
2018-06-04T02:25:43.021Z,16.75
2018-06-04T02:25:47.126Z,16.67
2018-06-04T02:25:51.267Z,16.66
2018-06-04T02:25:55.476Z,16.66
2018-06-04T02:25:59.795Z,16.72
2018-06-04T02:26:04.162Z,16.72
2018-06-04T02:26:08.375Z,16.72
2018-06-04T02:26:12.473Z,16.65
2018-06-04T02:26:16.682Z,16.73
2018-06-04T02:26:20.896Z,16.72
2018-06-04T02:26:25.103Z,16.72
2018-06-04T02:26:29.309Z,16.69
2018-06-04T02:26:33.518Z,16.69
2018-06-04T02:26:37.840Z,16.66
2018-06-04T02:26:42.157Z,16.69
2018-06-04T02:26:46.473Z,16.72
2018-06-04T02:26:50.805Z,16.66
2018-06-04T02:26:55.026Z,16.69
2018-06-04T02:26:59.344Z,16.69
2018-06-04T02:27:03.702Z,16.69
2018-06-04T02:27:07.807Z,16.73
2018-06-04T02:27:12.017Z,16.72
2018-06-04T02:27:16.332Z,16.67
2018-06-04T02:27:20.654Z,16.75
2018-06-04T02:27:24.884Z,16.69
2018-06-04T02:27:29.096Z,16.66
2018-06-04T02:27:33.321Z,16.66
2018-06-04T02:27:37.525Z,16.66
2018-06-04T02:27:41.741Z,16.72
2018-06-04T02:27:45.953Z,16.73
2018-06-04T02:27:50.056Z,16.73
2018-06-04T02:27:54.153Z,16.69
2018-06-04T02:27:58.481Z,16.72
2018-06-04T02:28:02.583Z,16.7
2018-06-04T02:28:06.680Z,16.66
2018-06-04T02:28:11.007Z,16.7
2018-06-04T02:28:15.224Z,16.7
2018-06-04T02:28:19.426Z,16.73
2018-06-04T02:28:23.639Z,16.78
2018-06-04T02:28:27.963Z,16.73
2018-06-04T02:28:31.958Z,16.78
2018-06-04T02:28:36.279Z,16.7
2018-06-04T02:28:40.490Z,16.73
2018-06-04T02:28:44.602Z,16.66
2018-06-04T02:28:48.811Z,16.77
2018-06-04T02:28:53.233Z,16.77
2018-06-04T02:28:57.887Z,16.7
2018-06-04T02:29:02.278Z,16.69
2018-06-04T02:29:06.486Z,16.73
2018-06-04T02:29:10.698Z,16.73
2018-06-04T02:29:14.909Z,16.77
2018-06-04T02:29:19.115Z,16.72
2018-06-04T02:29:23.322Z,16.8
2018-06-04T02:29:27.313Z,16.73
2018-06-04T02:29:31.522Z,16.72
2018-06-04T02:29:35.621Z,16.75
2018-06-04T02:29:39.830Z,16.75
2018-06-04T02:29:44.147Z,16.67
2018-06-04T02:29:48.458Z,16.73
2018-06-04T02:29:52.473Z,16.67
2018-06-04T02:29:56.574Z,16.77
2018-06-04T02:30:00.677Z,16.75
2018-06-04T02:30:04.967Z,16.7
2018-06-04T02:30:08.989Z,16.78
2018-06-04T02:30:13.101Z,16.75
2018-06-04T02:30:17.102Z,16.8
2018-06-04T02:30:21.328Z,16.8
2018-06-04T02:30:25.321Z,16.81
2018-06-04T02:30:29.231Z,16.85
2018-06-04T02:30:33.345Z,16.81
2018-06-04T02:30:37.726Z,16.77
2018-06-04T02:30:41.951Z,16.85
2018-06-04T02:30:46.070Z,16.82
2018-06-04T02:30:50.178Z,16.77
2018-06-04T02:30:54.287Z,16.78
2018-06-04T02:30:58.607Z,16.81
2018-06-04T02:31:02.883Z,16.81
2018-06-04T02:31:07.112Z,16.77
2018-06-04T02:31:11.228Z,16.8
2018-06-04T02:31:15.337Z,16.84
2018-06-04T02:31:19.461Z,16.85
2018-06-04T02:31:23.800Z,16.75
2018-06-04T02:31:28.121Z,16.73
2018-06-04T02:31:32.231Z,16.87
2018-06-04T02:31:36.447Z,16.78
2018-06-04T02:31:40.554Z,16.85
2018-06-04T02:31:44.891Z,16.87
2018-06-04T02:31:49.111Z,16.9
2018-06-04T02:31:53.442Z,16.8
2018-06-04T02:32:12.385Z,16.8
2018-06-04T02:32:16.603Z,16.81
2018-06-04T02:32:20.824Z,16.82
2018-06-04T02:32:24.840Z,16.85
2018-06-04T02:32:29.060Z,16.85
2018-06-04T02:32:33.382Z,16.88
2018-06-04T02:32:37.603Z,16.8
2018-06-04T02:32:41.810Z,16.85
2018-06-04T02:32:46.133Z,16.91
2018-06-04T02:32:50.343Z,16.77
2018-06-04T02:32:54.455Z,16.9
2018-06-04T02:32:58.667Z,16.88
2018-06-04T02:33:02.780Z,16.81
2018-06-04T02:33:06.881Z,16.84
2018-06-04T02:33:11.218Z,16.87
2018-06-04T02:33:15.433Z,16.84
2018-06-04T02:33:19.542Z,16.81
2018-06-04T02:33:23.867Z,16.84
2018-06-04T02:33:28.096Z,16.85
2018-06-04T02:33:32.207Z,16.8
2018-06-04T02:33:36.425Z,16.85
2018-06-04T02:33:40.640Z,16.9
2018-06-04T02:33:44.858Z,16.81
2018-06-04T02:33:49.088Z,16.8
2018-06-04T02:33:53.417Z,16.9
2018-06-04T02:33:57.750Z,16.91
2018-06-04T02:34:01.860Z,16.81
2018-06-04T02:34:06.085Z,16.85
2018-06-04T02:34:10.140Z,16.87
2018-06-04T02:34:14.366Z,16.84
2018-06-04T02:34:18.692Z,16.87
2018-06-04T02:34:23.014Z,16.87
2018-06-04T02:34:27.138Z,16.85
2018-06-04T02:34:31.476Z,16.82
2018-06-04T02:34:35.798Z,16.9
2018-06-04T02:34:40.010Z,16.84
2018-06-04T02:34:44.344Z,16.84
2018-06-04T02:34:48.559Z,16.8
2018-06-04T02:34:52.777Z,16.82
2018-06-04T02:34:56.994Z,16.84
2018-06-04T02:35:01.394Z,16.81
2018-06-04T02:35:05.627Z,16.8
2018-06-04T02:35:09.842Z,16.82
2018-06-04T02:35:13.956Z,16.82
2018-06-04T02:35:18.177Z,16.8
2018-06-04T02:35:22.392Z,16.84
2018-06-04T02:35:26.621Z,16.87
2018-06-04T02:35:30.954Z,16.82
2018-06-04T02:35:34.955Z,16.85
2018-06-04T02:35:39.278Z,16.82
2018-06-04T02:35:43.487Z,16.81
2018-06-04T02:35:47.611Z,16.82
2018-06-04T02:35:51.832Z,16.82
2018-06-04T02:35:55.959Z,16.84
2018-06-04T02:36:00.083Z,16.91
2018-06-04T02:36:04.305Z,16.81
2018-06-04T02:36:08.433Z,16.9
2018-06-04T02:36:12.545Z,16.82
2018-06-04T02:36:16.880Z,16.88
2018-06-04T02:36:21.210Z,16.82
2018-06-04T02:36:25.320Z,16.82
2018-06-04T02:36:29.423Z,16.9
2018-06-04T02:36:33.638Z,16.7
2018-06-04T02:36:37.755Z,16.82
2018-06-04T02:36:41.755Z,16.81
2018-06-04T02:36:45.973Z,16.78
2018-06-04T02:36:50.321Z,16.85
2018-06-04T02:36:54.562Z,16.77
2018-06-04T02:36:58.892Z,16.87
2018-06-04T02:37:03.102Z,16.84
2018-06-04T02:37:07.447Z,16.82
2018-06-04T02:37:11.667Z,16.78
2018-06-04T02:37:15.915Z,16.84
2018-06-04T02:37:20.125Z,16.77
2018-06-04T02:37:24.472Z,16.81
2018-06-04T02:37:28.701Z,16.77
2018-06-04T02:37:32.909Z,16.75
2018-06-04T02:37:37.151Z,16.88
2018-06-04T02:37:41.492Z,16.82
2018-06-04T02:37:45.595Z,16.8
2018-06-04T02:37:49.613Z,16.87
2018-06-04T02:37:53.943Z,16.75
2018-06-04T02:37:58.153Z,16.75
2018-06-04T02:38:02.376Z,16.8
2018-06-04T02:38:06.597Z,16.78
2018-06-04T02:38:10.935Z,16.84
2018-06-04T02:38:15.045Z,16.75
2018-06-04T02:38:19.265Z,16.8
2018-06-04T02:38:23.479Z,16.87
2018-06-04T02:38:27.606Z,16.84
2018-06-04T02:38:31.941Z,16.81
2018-06-04T02:38:36.168Z,16.78
2018-06-04T02:38:40.386Z,16.81
2018-06-04T02:38:44.715Z,16.78
2018-06-04T02:38:49.036Z,16.82
2018-06-04T02:38:53.243Z,16.81
2018-06-04T02:38:57.467Z,16.85
2018-06-04T02:39:01.890Z,16.7
2018-06-04T02:39:06.000Z,16.77
2018-06-04T02:39:10.339Z,16.77
2018-06-04T02:39:14.673Z,16.78
2018-06-04T02:39:18.927Z,16.78
2018-06-04T02:39:23.151Z,16.72
2018-06-04T02:39:27.047Z,16.81
2018-06-04T02:39:31.258Z,16.78
2018-06-04T02:39:35.476Z,16.81
2018-06-04T02:39:39.597Z,16.8
2018-06-04T02:39:43.811Z,16.69
2018-06-04T02:39:48.037Z,16.72
2018-06-04T02:39:52.152Z,16.82
2018-06-04T02:39:56.361Z,16.72
2018-06-04T02:40:00.486Z,16.65
2018-06-04T02:40:04.384Z,16.88
2018-06-04T02:40:08.491Z,16.69
2018-06-04T02:40:12.732Z,16.75
2018-06-04T02:40:16.953Z,16.67
2018-06-04T02:40:21.177Z,16.78
2018-06-04T02:40:25.291Z,16.73
2018-06-04T02:40:29.292Z,16.73
2018-06-04T02:40:33.509Z,16.69
2018-06-04T02:40:37.736Z,16.66
2018-06-04T02:40:42.081Z,16.73
2018-06-04T02:40:46.420Z,16.69
2018-06-04T02:40:50.770Z,16.73
2018-06-04T02:40:55.110Z,16.7
2018-06-04T02:40:59.462Z,16.7
2018-06-04T02:41:03.358Z,16.69
2018-06-04T02:41:07.569Z,16.75
2018-06-04T02:41:11.791Z,16.67
2018-06-04T02:41:16.109Z,16.77
2018-06-04T02:41:20.332Z,16.8
2018-06-04T02:41:24.656Z,16.65
2018-06-04T02:41:28.886Z,16.73
2018-06-04T02:41:33.099Z,16.69
2018-06-04T02:41:37.317Z,16.8
2018-06-04T02:41:41.584Z,16.72
2018-06-04T02:41:45.794Z,16.72
2018-06-04T02:41:49.913Z,16.73
2018-06-04T02:41:54.136Z,16.73
2018-06-04T02:41:58.472Z,16.75
2018-06-04T02:42:02.686Z,16.69
2018-06-04T02:42:06.904Z,16.67
2018-06-04T02:42:11.115Z,16.77
2018-06-04T02:42:15.242Z,16.67
2018-06-04T02:42:19.150Z,16.72
2018-06-04T02:42:23.186Z,16.7
2018-06-04T02:42:27.296Z,16.73
2018-06-04T02:42:31.525Z,16.72
2018-06-04T02:42:35.847Z,16.7
2018-06-04T02:42:40.186Z,16.72
2018-06-04T02:42:44.514Z,16.72
2018-06-04T02:42:48.730Z,16.69
2018-06-04T02:42:52.843Z,16.67
2018-06-04T02:42:57.089Z,16.65
2018-06-04T02:43:01.329Z,16.66
2018-06-04T02:43:05.444Z,16.69
2018-06-04T02:43:09.578Z,16.67
2018-06-04T02:43:13.900Z,16.73
2018-06-04T02:43:18.133Z,16.63
2018-06-04T02:43:22.473Z,16.75
2018-06-04T02:43:26.589Z,16.72
2018-06-04T02:43:30.584Z,16.67
2018-06-04T02:43:34.700Z,16.72
2018-06-04T02:43:38.812Z,16.7
2018-06-04T02:43:43.144Z,16.7
2018-06-04T02:43:47.466Z,16.65
2018-06-04T02:43:51.692Z,16.7
2018-06-04T02:43:55.901Z,16.7
2018-06-04T02:44:00.243Z,16.66
2018-06-04T02:44:04.471Z,16.66
2018-06-04T02:44:08.710Z,16.66
2018-06-04T02:44:12.819Z,16.65
2018-06-04T02:44:17.145Z,16.66
2018-06-04T02:44:21.364Z,16.62
2018-06-04T02:44:25.578Z,16.69
2018-06-04T02:44:29.699Z,16.63
2018-06-04T02:44:33.914Z,16.66
2018-06-04T02:44:38.139Z,16.63
2018-06-04T02:44:42.138Z,16.66
2018-06-04T02:44:46.480Z,16.6
2018-06-04T02:44:50.810Z,16.65
2018-06-04T02:44:55.140Z,16.65
2018-06-04T02:44:59.358Z,16.63
2018-06-04T02:45:03.593Z,16.59
2018-06-04T02:45:07.494Z,16.59
2018-06-04T02:45:11.605Z,16.62
2018-06-04T02:45:15.819Z,16.59
2018-06-04T02:45:20.145Z,16.6
2018-06-04T02:45:24.137Z,16.54
2018-06-04T02:45:28.472Z,16.59
2018-06-04T02:45:32.491Z,16.65
2018-06-04T02:45:36.707Z,16.55
2018-06-04T02:45:40.916Z,16.67
2018-06-04T02:45:45.131Z,16.6
2018-06-04T02:45:49.352Z,16.57
2018-06-04T02:45:53.456Z,16.59
2018-06-04T02:45:57.784Z,16.6
2018-06-04T02:46:01.791Z,16.55
2018-06-04T02:46:06.032Z,16.6
2018-06-04T02:46:10.251Z,16.55
2018-06-04T02:46:14.253Z,16.59
2018-06-04T02:46:18.474Z,16.54
2018-06-04T02:46:22.809Z,16.54
2018-06-04T02:46:27.029Z,16.6
2018-06-04T02:46:31.253Z,16.59
2018-06-04T02:46:35.357Z,16.55
2018-06-04T02:46:39.677Z,16.54
2018-06-04T02:46:43.889Z,16.6
2018-06-04T02:46:48.117Z,16.54
2018-06-04T02:46:52.135Z,16.6
2018-06-04T02:46:56.469Z,16.59
2018-06-04T02:47:00.808Z,16.6
2018-06-04T02:47:05.044Z,16.59
2018-06-04T02:47:09.186Z,16.66
2018-06-04T02:47:13.514Z,16.65
2018-06-04T02:47:17.857Z,16.59
2018-06-04T02:47:22.093Z,16.55
2018-06-04T02:47:26.425Z,16.54
2018-06-04T02:47:30.420Z,16.57
2018-06-04T02:47:34.753Z,16.54
2018-06-04T02:47:39.077Z,16.57
2018-06-04T02:47:43.311Z,16.57
2018-06-04T02:47:47.527Z,16.57
2018-06-04T02:47:51.871Z,16.63
2018-06-04T02:47:56.088Z,16.54
2018-06-04T02:48:00.202Z,16.54
2018-06-04T02:48:04.355Z,16.59
2018-06-04T02:48:08.248Z,16.54
2018-06-04T02:48:12.245Z,16.48
2018-06-04T02:48:16.486Z,16.57
2018-06-04T02:48:20.697Z,16.57
2018-06-04T02:48:24.902Z,16.55
2018-06-04T02:48:29.114Z,16.55
2018-06-04T02:48:33.343Z,16.57
2018-06-04T02:48:37.678Z,16.51
2018-06-04T02:48:41.912Z,16.55
2018-06-04T02:48:46.246Z,16.55
2018-06-04T02:48:50.355Z,16.55
2018-06-04T02:48:54.458Z,16.57
2018-06-04T02:48:58.674Z,16.5
2018-06-04T02:49:02.910Z,16.57
2018-06-04T02:49:07.151Z,16.52
2018-06-04T02:49:11.470Z,16.55
2018-06-04T02:49:15.683Z,16.54
2018-06-04T02:49:19.896Z,16.52
2018-06-04T02:49:24.008Z,16.54
2018-06-04T02:49:28.133Z,16.51
2018-06-04T02:49:32.457Z,16.55
2018-06-04T02:49:36.679Z,16.57
2018-06-04T02:49:40.791Z,16.55
2018-06-04T02:49:45.159Z,16.54
2018-06-04T02:49:49.604Z,16.55
2018-06-04T02:49:53.948Z,16.55
2018-06-04T02:49:59.038Z,16.5
2018-06-04T02:50:04.103Z,16.5
2018-06-04T02:50:09.630Z,16.55
2018-06-04T02:50:14.826Z,16.48
2018-06-04T02:50:18.985Z,16.5
2018-06-04T02:50:23.223Z,16.52
2018-06-04T02:50:27.444Z,16.47
2018-06-04T02:50:31.764Z,16.45
2018-06-04T02:50:35.992Z,16.51
2018-06-04T02:50:40.332Z,16.5
2018-06-04T02:50:44.560Z,16.51
2018-06-04T02:50:48.883Z,16.5
2018-06-04T02:50:53.233Z,16.51
2018-06-04T02:50:57.451Z,16.44
2018-06-04T02:51:16.281Z,16.45
2018-06-04T02:51:20.639Z,16.5
2018-06-04T02:51:24.528Z,16.55
2018-06-04T02:51:28.524Z,16.45
2018-06-04T02:51:32.739Z,16.5
2018-06-04T02:51:36.965Z,16.45
2018-06-04T02:51:41.290Z,16.48
2018-06-04T02:51:45.612Z,16.51
2018-06-04T02:51:49.930Z,16.45
2018-06-04T02:51:54.258Z,16.41
2018-06-04T02:51:58.585Z,16.48
2018-06-04T02:52:02.863Z,16.5
2018-06-04T02:52:07.211Z,16.48
2018-06-04T02:52:11.423Z,16.5
2018-06-04T02:52:15.666Z,16.5
2018-06-04T02:52:19.898Z,16.45
2018-06-04T02:52:24.121Z,16.59
2018-06-04T02:52:28.453Z,16.51
2018-06-04T02:52:32.676Z,16.5
2018-06-04T02:52:36.672Z,16.44
2018-06-04T02:52:40.669Z,16.5
2018-06-04T02:52:44.782Z,16.51
2018-06-04T02:52:48.893Z,16.41
2018-06-04T02:52:53.213Z,16.51
2018-06-04T02:52:57.579Z,16.45
2018-06-04T02:53:01.901Z,16.52
2018-06-04T02:53:06.121Z,16.54
2018-06-04T02:53:10.351Z,16.42
2018-06-04T02:53:14.693Z,16.44
2018-06-04T02:53:18.814Z,16.45
2018-06-04T02:53:22.824Z,16.5
2018-06-04T02:53:27.148Z,16.51
2018-06-04T02:53:31.365Z,16.51
2018-06-04T02:53:35.577Z,16.41
2018-06-04T02:53:39.800Z,16.48
2018-06-04T02:53:44.124Z,16.52
2018-06-04T02:53:48.443Z,16.4
2018-06-04T02:53:52.658Z,16.47
2018-06-04T02:53:56.873Z,16.5
2018-06-04T02:54:00.984Z,16.41
2018-06-04T02:54:05.228Z,16.54
2018-06-04T02:54:09.453Z,16.5
2018-06-04T02:54:13.791Z,16.55
2018-06-04T02:54:18.000Z,16.47
2018-06-04T02:54:22.373Z,16.48
2018-06-04T02:54:26.589Z,16.5
2018-06-04T02:54:30.923Z,16.37
2018-06-04T02:54:35.236Z,16.45
2018-06-04T02:54:39.454Z,16.48
2018-06-04T02:54:43.775Z,16.55
2018-06-04T02:54:48.049Z,16.41
2018-06-04T02:54:52.165Z,16.42
2018-06-04T02:54:56.382Z,16.47
2018-06-04T02:55:00.706Z,16.45
2018-06-04T02:55:04.645Z,16.42
2018-06-04T02:55:08.651Z,16.41
2018-06-04T02:55:12.758Z,16.45
2018-06-04T02:55:16.975Z,16.45
2018-06-04T02:55:21.312Z,16.47
2018-06-04T02:55:25.646Z,16.47
2018-06-04T02:55:29.864Z,16.5
2018-06-04T02:55:34.073Z,16.37